createdAt,value
2019-01-31T00:00:54.394Z,0.40
2019-01-31T00:01:54.396Z,0.40
2019-01-31T00:02:54.400Z,0.50
2019-01-31T00:03:54.403Z,0.40
2019-01-31T00:04:54.409Z,0.40
2019-01-31T00:05:54.410Z,0.40
2019-01-31T00:06:54.413Z,0.40
2019-01-31T00:07:54.416Z,0.40
2019-01-31T00:08:54.420Z,0.50
2019-01-31T00:09:54.423Z,0.40
2019-01-31T00:10:54.428Z,0.40
2019-01-31T00:11:54.430Z,0.40
2019-01-31T00:12:54.432Z,0.40
2019-01-31T00:13:54.437Z,0.40
2019-01-31T00:14:54.438Z,0.40
2019-01-31T00:15:54.442Z,0.40
2019-01-31T00:16:54.446Z,0.40
2019-01-31T00:17:54.447Z,0.50
2019-01-31T00:18:54.452Z,0.40
2019-01-31T00:19:54.455Z,0.40
2019-01-31T00:20:54.458Z,0.40
2019-01-31T00:21:54.461Z,0.40
2019-01-31T00:22:54.465Z,0.40
2019-01-31T00:23:54.467Z,0.40
2019-01-31T00:24:54.471Z,0.40
2019-01-31T00:25:54.475Z,0.50
2019-01-31T00:26:54.554Z,0.50
2019-01-31T00:27:54.480Z,0.50
2019-01-31T00:28:54.486Z,0.50
2019-01-31T00:29:54.487Z,0.40
2019-01-31T00:30:54.488Z,0.50
2019-01-31T00:31:54.495Z,0.40
2019-01-31T00:32:54.497Z,0.50
2019-01-31T00:33:54.500Z,0.50
2019-01-31T00:34:54.504Z,0.50
2019-01-31T00:35:54.506Z,0.40
2019-01-31T00:36:54.509Z,0.40
2019-01-31T00:37:54.532Z,0.50
2019-01-31T00:38:56.917Z,0.50
2019-01-31T00:39:54.519Z,0.50
2019-01-31T00:40:54.522Z,0.50
2019-01-31T00:41:54.526Z,0.40
2019-01-31T00:42:54.528Z,0.40
2019-01-31T00:43:54.531Z,0.50
2019-01-31T00:44:54.535Z,0.40
2019-01-31T00:45:54.538Z,0.40
2019-01-31T00:46:54.542Z,0.40
2019-01-31T00:47:54.549Z,0.40
2019-01-31T00:48:54.547Z,0.40
2019-01-31T00:49:54.551Z,0.40
2019-01-31T00:50:54.553Z,0.50
2019-01-31T00:51:54.557Z,0.40
2019-01-31T00:52:54.563Z,0.40
2019-01-31T00:53:54.564Z,0.40
2019-01-31T00:54:54.566Z,0.40
2019-01-31T00:55:54.570Z,0.40
2019-01-31T00:56:54.573Z,0.40
2019-01-31T00:57:54.578Z,0.50
2019-01-31T00:58:54.580Z,0.50
2019-01-31T00:59:54.583Z,0.30
2019-01-31T01:00:54.583Z,0.40
2019-01-31T01:01:54.590Z,0.40
2019-01-31T01:02:54.591Z,0.50
2019-01-31T01:03:54.595Z,0.50
2019-01-31T01:04:54.597Z,0.30
2019-01-31T01:05:54.603Z,0.40
2019-01-31T01:06:54.608Z,0.50
2019-01-31T01:07:54.610Z,0.50
2019-01-31T01:08:54.612Z,0.30
2019-01-31T01:09:54.615Z,0.30
2019-01-31T01:10:54.618Z,0.50
2019-01-31T01:11:54.623Z,0.50
2019-01-31T01:12:54.625Z,0.50
2019-01-31T01:13:54.626Z,0.40
2019-01-31T01:14:54.634Z,0.40
2019-01-31T01:15:54.633Z,0.50
2019-01-31T01:16:54.637Z,0.30
2019-01-31T01:17:54.643Z,0.40
2019-01-31T01:18:54.644Z,0.40
2019-01-31T01:19:54.645Z,0.40
2019-01-31T01:20:54.651Z,0.40
2019-01-31T01:21:54.655Z,0.50
2019-01-31T01:22:54.656Z,0.40
2019-01-31T01:23:54.659Z,0.50
2019-01-31T01:24:54.662Z,0.50
2019-01-31T01:25:54.665Z,0.40
2019-01-31T01:26:54.667Z,0.40
2019-01-31T01:27:54.674Z,0.40
2019-01-31T01:28:54.730Z,0.50
2019-01-31T01:29:54.679Z,0.40
2019-01-31T01:30:54.681Z,0.30
2019-01-31T01:31:54.684Z,0.40
2019-01-31T01:32:54.687Z,0.30
2019-01-31T01:33:54.690Z,0.30
2019-01-31T01:35:01.167Z,0.30
2019-01-31T01:35:54.696Z,0.40
2019-01-31T01:36:54.701Z,0.50
2019-01-31T01:37:54.703Z,0.40
2019-01-31T01:38:54.706Z,0.40
2019-01-31T01:39:54.710Z,0.30
2019-01-31T01:40:54.713Z,0.40
2019-01-31T01:41:54.718Z,0.40
2019-01-31T01:42:54.720Z,0.40
2019-01-31T01:43:54.722Z,0.50
2019-01-31T01:44:54.726Z,0.40
2019-01-31T01:45:54.728Z,0.30
2019-01-31T01:46:54.731Z,0.30
2019-01-31T01:47:54.735Z,0.40
2019-01-31T01:48:54.738Z,0.50
2019-01-31T01:49:54.741Z,0.40
2019-01-31T01:50:54.743Z,0.40
2019-01-31T01:51:54.747Z,0.30
2019-01-31T01:52:54.751Z,0.40
2019-01-31T01:53:54.756Z,0.30
2019-01-31T01:54:54.756Z,0.40
2019-01-31T01:55:54.760Z,0.40
2019-01-31T01:56:54.763Z,0.40
2019-01-31T01:57:54.770Z,0.30
2019-01-31T01:58:54.769Z,0.40
2019-01-31T01:59:54.774Z,0.40
2019-01-31T02:00:54.777Z,0.50
2019-01-31T02:01:54.780Z,0.30
2019-01-31T02:02:54.782Z,0.50
2019-01-31T02:03:54.785Z,0.50
2019-01-31T02:04:54.790Z,0.30
2019-01-31T02:05:54.792Z,0.40
2019-01-31T02:06:54.795Z,0.40
2019-01-31T02:07:54.798Z,0.30
2019-01-31T02:08:54.802Z,0.30
2019-01-31T02:09:54.807Z,0.40
2019-01-31T02:10:54.808Z,0.40
2019-01-31T02:11:54.811Z,0.40
2019-01-31T02:12:54.816Z,0.40
2019-01-31T02:13:54.821Z,0.40
2019-01-31T02:14:54.821Z,0.30
2019-01-31T02:15:54.824Z,0.40
2019-01-31T02:16:54.827Z,0.30
2019-01-31T02:17:54.831Z,0.30
2019-01-31T02:18:54.837Z,0.30
2019-01-31T02:19:54.876Z,0.30
2019-01-31T02:20:54.840Z,0.40
2019-01-31T02:21:54.845Z,0.30
2019-01-31T02:22:54.846Z,0.40
2019-01-31T02:23:54.851Z,0.30
2019-01-31T02:24:54.853Z,0.40
2019-01-31T02:25:54.856Z,0.40
2019-01-31T02:26:54.858Z,0.30
2019-01-31T02:27:54.861Z,0.40
2019-01-31T02:28:54.863Z,0.30
2019-01-31T02:29:54.868Z,0.30
2019-01-31T02:30:54.871Z,0.30
2019-01-31T02:31:54.875Z,0.30
2019-01-31T02:32:54.886Z,0.40
2019-01-31T02:33:54.889Z,0.40
2019-01-31T02:34:54.889Z,0.40
2019-01-31T02:35:54.890Z,0.30
2019-01-31T02:36:54.892Z,0.30
2019-01-31T02:37:54.894Z,0.30
2019-01-31T02:38:54.898Z,0.30
2019-01-31T02:39:54.898Z,0.30
2019-01-31T02:40:54.908Z,0.30
2019-01-31T02:41:54.908Z,0.40
2019-01-31T02:42:54.911Z,0.30
2019-01-31T02:43:54.914Z,0.30
2019-01-31T02:44:54.916Z,0.30
2019-01-31T02:45:54.921Z,0.30
2019-01-31T02:46:54.923Z,0.30
2019-01-31T02:47:54.928Z,0.30
2019-01-31T02:48:54.929Z,0.30
2019-01-31T02:49:54.933Z,0.30
2019-01-31T02:50:54.935Z,0.40
2019-01-31T02:51:54.938Z,0.30
2019-01-31T02:52:54.944Z,0.30
2019-01-31T02:53:54.946Z,0.30
2019-01-31T02:54:54.947Z,0.30
2019-01-31T02:55:54.952Z,0.30
2019-01-31T02:56:54.957Z,0.30
2019-01-31T02:57:54.966Z,0.30
2019-01-31T02:58:54.967Z,0.30
2019-01-31T02:59:54.967Z,0.30
2019-01-31T03:00:54.967Z,0.30
2019-01-31T03:01:54.973Z,0.30
2019-01-31T03:02:54.973Z,0.30
2019-01-31T03:03:54.979Z,0.50
2019-01-31T03:04:54.980Z,0.40
2019-01-31T03:05:54.983Z,0.30
2019-01-31T03:06:54.987Z,0.30
2019-01-31T03:07:54.989Z,0.30
2019-01-31T03:08:54.992Z,0.30
2019-01-31T03:09:55.283Z,0.30
2019-01-31T03:10:55.002Z,0.30
2019-01-31T03:11:55.002Z,0.30
2019-01-31T03:12:55.010Z,0.30
2019-01-31T03:13:55.013Z,0.30
2019-01-31T03:14:55.014Z,0.30
2019-01-31T03:15:55.024Z,0.30
2019-01-31T03:16:55.019Z,0.20
2019-01-31T03:17:55.022Z,0.30
2019-01-31T03:18:55.024Z,0.40
2019-01-31T03:19:55.029Z,0.30
2019-01-31T03:20:55.030Z,0.30
2019-01-31T03:21:55.035Z,0.30
2019-01-31T03:22:55.037Z,0.30
2019-01-31T03:23:55.041Z,0.30
2019-01-31T03:24:55.043Z,0.30
2019-01-31T03:25:55.050Z,0.40
2019-01-31T03:26:55.050Z,0.30
2019-01-31T03:27:55.053Z,0.50
2019-01-31T03:28:55.055Z,0.30
2019-01-31T03:29:55.065Z,0.30
2019-01-31T03:30:55.067Z,0.30
2019-01-31T03:31:55.074Z,0.40
2019-01-31T03:32:55.070Z,0.30
2019-01-31T03:33:55.073Z,0.30
2019-01-31T03:34:55.125Z,0.30
2019-01-31T03:35:55.080Z,0.40
2019-01-31T03:36:55.087Z,0.30
2019-01-31T03:37:55.093Z,0.30
2019-01-31T03:38:55.092Z,0.30
2019-01-31T03:40:06.313Z,0.30
2019-01-31T03:40:55.096Z,0.40
2019-01-31T03:41:55.104Z,0.30
2019-01-31T03:42:55.108Z,0.30
2019-01-31T03:43:55.108Z,0.30
2019-01-31T03:44:55.111Z,0.30
2019-01-31T03:45:55.111Z,0.20
2019-01-31T03:46:55.113Z,0.20
2019-01-31T03:47:55.117Z,0.30
2019-01-31T03:48:55.124Z,0.20
2019-01-31T03:49:55.182Z,0.30
2019-01-31T03:50:55.135Z,0.30
2019-01-31T03:51:55.132Z,0.20
2019-01-31T03:52:55.134Z,0.20
2019-01-31T03:53:55.136Z,0.30
2019-01-31T03:54:55.147Z,0.30
2019-01-31T03:55:55.149Z,0.30
2019-01-31T03:56:55.145Z,0.20
2019-01-31T03:57:55.150Z,0.40
2019-01-31T03:58:55.151Z,0.30
2019-01-31T03:59:55.154Z,0.20
2019-01-31T04:00:55.158Z,0.30
2019-01-31T04:01:55.161Z,0.30
2019-01-31T04:02:55.162Z,0.30
2019-01-31T04:03:55.170Z,0.30
2019-01-31T04:04:55.171Z,0.30
2019-01-31T04:05:55.174Z,0.20
2019-01-31T04:06:55.177Z,0.30
2019-01-31T04:07:55.180Z,0.30
2019-01-31T04:08:55.183Z,0.20
2019-01-31T04:09:55.187Z,0.20
2019-01-31T04:10:55.189Z,0.20
2019-01-31T04:11:55.191Z,0.30
2019-01-31T04:12:55.197Z,0.30
2019-01-31T04:13:55.201Z,0.30
2019-01-31T04:14:55.202Z,0.30
2019-01-31T04:15:55.206Z,0.40
2019-01-31T04:16:55.208Z,0.20
2019-01-31T04:17:55.212Z,0.40
2019-01-31T04:18:55.277Z,0.30
2019-01-31T04:19:55.272Z,0.30
2019-01-31T04:20:55.226Z,0.30
2019-01-31T04:21:55.228Z,0.30
2019-01-31T04:22:55.225Z,0.20
2019-01-31T04:23:55.231Z,0.30
2019-01-31T04:24:55.235Z,0.20
2019-01-31T04:25:55.237Z,0.30
2019-01-31T04:26:55.239Z,0.30
2019-01-31T04:27:55.244Z,0.30
2019-01-31T04:28:55.246Z,0.30
2019-01-31T04:29:55.250Z,0.20
2019-01-31T04:30:55.256Z,0.20
2019-01-31T04:31:55.255Z,0.30
2019-01-31T04:32:55.258Z,0.20
2019-01-31T04:33:55.262Z,0.20
2019-01-31T04:34:55.318Z,0.40
2019-01-31T04:35:55.269Z,0.20
2019-01-31T04:36:55.271Z,0.20
2019-01-31T04:37:55.282Z,0.20
2019-01-31T04:38:55.277Z,0.20
2019-01-31T04:39:55.281Z,0.30
2019-01-31T04:40:55.293Z,0.20
2019-01-31T04:41:55.288Z,0.20
2019-01-31T04:42:55.290Z,0.30
2019-01-31T04:43:55.294Z,0.30
2019-01-31T04:44:55.297Z,0.40
2019-01-31T04:45:55.298Z,0.20
2019-01-31T04:46:55.302Z,0.30
2019-01-31T04:47:56.441Z,0.30
2019-01-31T04:48:55.311Z,0.30
2019-01-31T04:49:55.313Z,0.30
2019-01-31T04:50:55.314Z,0.40
2019-01-31T04:51:55.321Z,0.30
2019-01-31T04:52:55.322Z,0.30
2019-01-31T04:53:55.327Z,0.30
2019-01-31T04:54:55.329Z,0.20
2019-01-31T04:55:55.332Z,0.20
2019-01-31T04:56:55.342Z,0.30
2019-01-31T04:57:55.337Z,0.30
2019-01-31T04:58:55.341Z,0.30
2019-01-31T04:59:55.344Z,0.30
2019-01-31T05:00:55.348Z,0.30
2019-01-31T05:01:55.349Z,0.20
2019-01-31T05:02:55.354Z,0.30
2019-01-31T05:03:55.358Z,0.20
2019-01-31T05:04:55.361Z,0.30
2019-01-31T05:05:55.364Z,0.20
2019-01-31T05:06:55.367Z,0.20
2019-01-31T05:07:55.370Z,0.30
2019-01-31T05:08:55.372Z,0.30
2019-01-31T05:09:55.377Z,0.30
2019-01-31T05:10:55.381Z,0.30
2019-01-31T05:11:55.388Z,0.40
2019-01-31T05:12:55.386Z,0.40
2019-01-31T05:13:55.390Z,0.50
2019-01-31T05:14:55.392Z,0.40
2019-01-31T05:15:55.395Z,0.40
2019-01-31T05:16:55.402Z,0.40
2019-01-31T05:17:55.404Z,0.50
2019-01-31T05:18:55.519Z,0.40
2019-01-31T05:19:55.410Z,0.40
2019-01-31T05:20:55.411Z,0.40
2019-01-31T05:21:55.414Z,0.50
2019-01-31T05:22:55.417Z,0.40
2019-01-31T05:23:55.423Z,0.40
2019-01-31T05:24:55.424Z,0.40
2019-01-31T05:25:55.427Z,0.40
2019-01-31T05:26:55.428Z,0.40
2019-01-31T05:27:55.434Z,0.30
2019-01-31T05:28:55.436Z,0.30
2019-01-31T05:29:55.440Z,0.20
2019-01-31T05:30:55.446Z,0.40
2019-01-31T05:31:55.444Z,0.30
2019-01-31T05:32:55.450Z,0.30
2019-01-31T05:33:55.454Z,0.40
2019-01-31T05:34:55.453Z,0.40
2019-01-31T05:35:55.458Z,0.40
2019-01-31T05:36:55.462Z,0.30
2019-01-31T05:37:55.467Z,0.30
2019-01-31T05:38:55.468Z,0.40
2019-01-31T05:39:55.471Z,0.30
2019-01-31T05:40:56.085Z,0.40
2019-01-31T05:41:55.480Z,0.30
2019-01-31T05:42:55.486Z,0.30
2019-01-31T05:43:55.484Z,0.50
2019-01-31T05:44:55.488Z,0.40
2019-01-31T05:45:55.490Z,0.40
2019-01-31T05:46:55.493Z,0.30
2019-01-31T05:47:55.498Z,0.50
2019-01-31T05:48:55.500Z,0.40
2019-01-31T05:49:55.518Z,0.50
2019-01-31T05:50:55.506Z,0.30
2019-01-31T05:51:55.516Z,0.30
2019-01-31T05:52:55.526Z,0.40
2019-01-31T05:53:55.516Z,0.40
2019-01-31T05:54:55.518Z,0.30
2019-01-31T05:55:55.524Z,0.40
2019-01-31T05:56:55.526Z,0.50
2019-01-31T05:57:55.534Z,0.50
2019-01-31T05:58:55.529Z,0.50
2019-01-31T05:59:55.686Z,0.50
2019-01-31T06:00:55.545Z,0.40
2019-01-31T06:01:55.547Z,0.40
2019-01-31T06:02:55.544Z,0.40
2019-01-31T06:03:55.548Z,0.50
2019-01-31T06:04:55.556Z,0.50
2019-01-31T06:05:55.555Z,0.60
2019-01-31T06:06:55.557Z,0.60
2019-01-31T06:07:55.560Z,0.50
2019-01-31T06:08:55.564Z,0.50
2019-01-31T06:09:55.567Z,0.50
2019-01-31T06:11:06.827Z,0.50
2019-01-31T06:11:55.583Z,0.50
2019-01-31T06:12:55.589Z,0.60
2019-01-31T06:13:55.586Z,0.50
2019-01-31T06:14:55.585Z,0.50
2019-01-31T06:15:55.590Z,0.50
2019-01-31T06:16:55.590Z,0.50
2019-01-31T06:17:55.593Z,0.50
2019-01-31T06:18:55.595Z,0.50
2019-01-31T06:19:55.603Z,0.50
2019-01-31T06:20:55.604Z,0.50
2019-01-31T06:21:55.605Z,0.50
2019-01-31T06:22:55.608Z,0.50
2019-01-31T06:23:55.612Z,0.50
2019-01-31T06:24:55.615Z,0.40
2019-01-31T06:25:55.618Z,0.40
2019-01-31T06:26:55.621Z,0.50
2019-01-31T06:27:55.624Z,0.50
2019-01-31T06:28:55.628Z,0.60
2019-01-31T06:29:55.631Z,0.40
2019-01-31T06:30:55.634Z,0.50
2019-01-31T06:31:55.637Z,0.50
2019-01-31T06:32:55.643Z,0.60
2019-01-31T06:33:55.656Z,0.50
2019-01-31T06:34:55.651Z,0.60
2019-01-31T06:35:55.653Z,0.50
2019-01-31T06:36:55.658Z,0.40
2019-01-31T06:37:55.659Z,0.50
2019-01-31T06:38:55.662Z,0.60
2019-01-31T06:39:55.662Z,0.60
2019-01-31T06:40:55.666Z,0.60
2019-01-31T06:41:55.670Z,0.50
2019-01-31T06:42:55.672Z,0.40
2019-01-31T06:43:55.675Z,0.60
2019-01-31T06:44:55.681Z,0.40
2019-01-31T06:45:56.322Z,0.40
2019-01-31T06:46:55.686Z,0.50
2019-01-31T06:47:55.702Z,0.60
2019-01-31T06:48:55.692Z,0.50
2019-01-31T06:49:55.746Z,0.50
2019-01-31T06:50:55.696Z,0.50
2019-01-31T06:51:55.701Z,0.50
2019-01-31T06:52:58.189Z,0.60
2019-01-31T06:53:55.710Z,0.50
2019-01-31T06:54:55.861Z,0.40
2019-01-31T06:55:55.715Z,0.40
2019-01-31T06:56:55.718Z,0.60
2019-01-31T06:57:55.776Z,0.60
2019-01-31T06:58:55.728Z,0.50
2019-01-31T06:59:55.730Z,0.40
2019-01-31T07:00:55.731Z,0.50
2019-01-31T07:01:55.738Z,0.70
2019-01-31T07:02:55.736Z,0.60
2019-01-31T07:03:55.789Z,0.40
2019-01-31T07:04:55.743Z,0.50
2019-01-31T07:05:55.747Z,0.40
2019-01-31T07:06:55.748Z,0.40
2019-01-31T07:07:55.754Z,0.50
2019-01-31T07:08:55.757Z,0.60
2019-01-31T07:09:55.810Z,0.40
2019-01-31T07:10:55.761Z,0.50
2019-01-31T07:11:55.766Z,0.40
2019-01-31T07:12:55.770Z,0.40
2019-01-31T07:13:55.774Z,0.50
2019-01-31T07:14:55.775Z,0.50
2019-01-31T07:15:55.778Z,0.50
2019-01-31T07:16:55.782Z,0.50
2019-01-31T07:17:55.786Z,0.40
2019-01-31T07:18:55.791Z,0.50
2019-01-31T07:19:56.583Z,0.50
2019-01-31T07:20:55.874Z,0.50
2019-01-31T07:21:55.803Z,0.50
2019-01-31T07:22:55.801Z,0.50
2019-01-31T07:23:55.805Z,0.50
2019-01-31T07:24:55.808Z,0.50
2019-01-31T07:25:55.812Z,0.50
2019-01-31T07:26:55.814Z,0.40
2019-01-31T07:27:55.855Z,0.60
2019-01-31T07:28:55.821Z,0.40
2019-01-31T07:29:55.826Z,0.40
2019-01-31T07:30:55.828Z,0.50
2019-01-31T07:31:55.831Z,0.60
2019-01-31T07:32:55.834Z,0.40
2019-01-31T07:33:55.892Z,0.60
2019-01-31T07:34:55.893Z,0.50
2019-01-31T07:35:55.843Z,0.50
2019-01-31T07:36:55.850Z,0.50
2019-01-31T07:37:55.851Z,0.50
2019-01-31T07:38:55.854Z,0.30
2019-01-31T07:39:55.857Z,0.40
2019-01-31T07:40:55.864Z,0.50
2019-01-31T07:41:55.864Z,0.50
2019-01-31T07:42:55.866Z,0.40
2019-01-31T07:43:55.869Z,0.60
2019-01-31T07:44:55.873Z,0.60
2019-01-31T07:45:55.891Z,0.60
2019-01-31T07:46:55.881Z,0.40
2019-01-31T07:47:55.883Z,0.40
2019-01-31T07:48:55.885Z,0.70
2019-01-31T07:49:55.961Z,0.70
2019-01-31T07:50:55.889Z,0.50
2019-01-31T07:51:55.901Z,0.60
2019-01-31T07:52:55.904Z,0.80
2019-01-31T07:53:55.956Z,0.60
2019-01-31T07:54:55.905Z,0.60
2019-01-31T07:55:55.910Z,0.80
2019-01-31T07:56:55.912Z,0.60
2019-01-31T07:57:55.918Z,0.60
2019-01-31T07:58:55.919Z,0.80
2019-01-31T07:59:55.924Z,1.00
2019-01-31T08:00:55.977Z,0.80
2019-01-31T08:01:55.929Z,0.80
2019-01-31T08:02:55.933Z,1.00
2019-01-31T08:04:02.694Z,0.80
2019-01-31T08:04:55.990Z,0.90
2019-01-31T08:05:55.944Z,0.80
2019-01-31T08:06:55.949Z,1.10
2019-01-31T08:07:55.953Z,0.90
2019-01-31T08:08:55.959Z,1.00
2019-01-31T08:09:56.212Z,0.90
2019-01-31T08:10:55.959Z,0.80
2019-01-31T08:11:55.963Z,1.00
2019-01-31T08:12:55.966Z,1.00
2019-01-31T08:13:55.970Z,1.00
2019-01-31T08:14:56.020Z,1.00
2019-01-31T08:15:55.976Z,0.70
2019-01-31T08:16:55.980Z,0.90
2019-01-31T08:17:55.987Z,1.00
2019-01-31T08:18:55.986Z,0.80
2019-01-31T08:19:55.990Z,0.90
2019-01-31T08:20:55.993Z,1.20
2019-01-31T08:21:55.996Z,0.80
2019-01-31T08:22:55.999Z,0.90
2019-01-31T08:23:56.003Z,0.90
2019-01-31T08:24:56.006Z,1.00
2019-01-31T08:25:56.010Z,1.30
2019-01-31T08:26:56.120Z,1.00
2019-01-31T08:27:56.022Z,1.10
2019-01-31T08:28:56.021Z,1.10
2019-01-31T08:29:56.022Z,1.30
2019-01-31T08:30:56.026Z,1.00
2019-01-31T08:31:56.039Z,1.00
2019-01-31T08:32:56.034Z,1.10
2019-01-31T08:33:56.038Z,0.90
2019-01-31T08:34:56.040Z,0.80
2019-01-31T08:35:56.045Z,1.00
2019-01-31T08:36:56.046Z,0.90
2019-01-31T08:37:56.051Z,0.80
2019-01-31T08:38:56.051Z,1.00
2019-01-31T08:39:56.056Z,0.90
2019-01-31T08:40:56.061Z,1.00
2019-01-31T08:42:03.563Z,0.90
2019-01-31T08:42:56.066Z,1.00
2019-01-31T08:43:56.069Z,0.70
2019-01-31T08:44:56.073Z,0.80
2019-01-31T08:45:56.074Z,0.90
2019-01-31T08:46:56.078Z,0.90
2019-01-31T08:47:56.081Z,0.80
2019-01-31T08:48:56.084Z,1.00
2019-01-31T08:49:56.090Z,0.70
2019-01-31T08:50:56.090Z,0.90
2019-01-31T08:51:56.097Z,0.80
2019-01-31T08:52:56.098Z,0.80
2019-01-31T08:53:56.100Z,1.00
2019-01-31T08:54:56.105Z,0.90
2019-01-31T08:55:56.109Z,1.00
2019-01-31T08:56:56.115Z,0.90
2019-01-31T08:57:56.118Z,0.70
2019-01-31T08:58:56.120Z,0.80
2019-01-31T08:59:56.172Z,0.70
2019-01-31T09:00:56.127Z,0.80
2019-01-31T09:01:56.130Z,0.50
2019-01-31T09:02:56.134Z,0.70
2019-01-31T09:03:56.137Z,0.70
2019-01-31T09:04:56.139Z,0.70
2019-01-31T09:05:56.213Z,0.60
2019-01-31T09:06:56.144Z,0.60
2019-01-31T09:07:56.153Z,0.60
2019-01-31T09:08:56.149Z,0.50
2019-01-31T09:09:56.256Z,0.50
2019-01-31T09:10:56.158Z,0.50
2019-01-31T09:11:56.167Z,0.70
2019-01-31T09:12:56.169Z,0.70
2019-01-31T09:13:56.169Z,0.60
2019-01-31T09:14:56.172Z,0.60
2019-01-31T09:15:56.173Z,0.50
2019-01-31T09:16:56.183Z,0.40
2019-01-31T09:17:56.181Z,0.40
2019-01-31T09:18:56.185Z,0.40
2019-01-31T09:19:56.190Z,0.50
2019-01-31T09:20:56.192Z,0.50
2019-01-31T09:21:56.210Z,0.50
2019-01-31T09:22:56.200Z,0.50
2019-01-31T09:23:56.204Z,0.60
2019-01-31T09:24:56.206Z,0.60
2019-01-31T09:25:56.208Z,0.60
2019-01-31T09:26:56.211Z,0.40
2019-01-31T09:27:56.216Z,0.50
2019-01-31T09:28:56.269Z,0.50
2019-01-31T09:29:56.326Z,0.40
2019-01-31T09:30:56.225Z,0.40
2019-01-31T09:31:56.228Z,0.40
2019-01-31T09:32:56.233Z,0.30
2019-01-31T09:33:56.236Z,0.30
2019-01-31T09:34:56.338Z,0.30
2019-01-31T09:35:56.240Z,0.50
2019-01-31T09:36:56.251Z,0.50
2019-01-31T09:37:56.256Z,0.50
2019-01-31T09:38:56.305Z,0.50
2019-01-31T09:39:56.256Z,0.40
2019-01-31T09:40:56.259Z,0.50
2019-01-31T09:41:56.262Z,0.60
2019-01-31T09:42:56.270Z,0.60
2019-01-31T09:43:56.270Z,0.50
2019-01-31T09:44:56.373Z,0.90
2019-01-31T09:45:56.281Z,0.60
2019-01-31T09:46:56.280Z,0.50
2019-01-31T09:47:56.286Z,0.50
2019-01-31T09:48:56.287Z,0.60
2019-01-31T09:49:56.343Z,0.70
2019-01-31T09:50:56.290Z,0.70
2019-01-31T09:51:56.296Z,0.60
2019-01-31T09:52:56.331Z,0.70
2019-01-31T09:53:56.304Z,0.70
2019-01-31T09:54:56.306Z,0.60
2019-01-31T09:55:56.309Z,0.70
2019-01-31T09:56:56.314Z,0.60
2019-01-31T09:57:56.316Z,0.70
2019-01-31T09:58:56.319Z,0.80
2019-01-31T09:59:56.323Z,0.90
2019-01-31T10:00:56.335Z,0.80
2019-01-31T10:01:56.339Z,0.80
2019-01-31T10:02:56.333Z,0.70
2019-01-31T10:03:56.340Z,0.70
2019-01-31T10:04:56.390Z,0.90
2019-01-31T10:05:56.344Z,0.80
2019-01-31T10:06:56.346Z,0.90
2019-01-31T10:07:56.350Z,0.90
2019-01-31T10:08:56.355Z,0.70
2019-01-31T10:09:56.458Z,1.00
2019-01-31T10:10:56.412Z,0.70
2019-01-31T10:11:56.407Z,0.80
2019-01-31T10:12:56.415Z,0.70
2019-01-31T10:13:56.460Z,0.60
2019-01-31T10:14:56.427Z,0.80
2019-01-31T10:15:56.537Z,0.70
2019-01-31T10:16:56.473Z,0.70
2019-01-31T10:17:56.420Z,0.80
2019-01-31T10:18:56.447Z,0.80
2019-01-31T10:19:56.447Z,0.70
2019-01-31T10:20:56.397Z,0.80
2019-01-31T10:21:56.501Z,0.80
2019-01-31T10:22:56.406Z,0.80
2019-01-31T10:23:56.406Z,0.80
2019-01-31T10:24:56.502Z,0.70
2019-01-31T10:25:56.412Z,0.80
2019-01-31T10:26:56.415Z,0.90
2019-01-31T10:27:56.417Z,0.70
2019-01-31T10:28:56.421Z,0.70
2019-01-31T10:29:56.426Z,0.70
2019-01-31T10:30:56.477Z,0.50
2019-01-31T10:31:56.433Z,0.50
2019-01-31T10:32:56.436Z,0.50
2019-01-31T10:33:56.442Z,0.70
2019-01-31T10:34:56.443Z,0.70
2019-01-31T10:35:56.446Z,0.70
2019-01-31T10:36:56.500Z,0.80
2019-01-31T10:37:56.456Z,0.90
2019-01-31T10:38:56.508Z,0.70
2019-01-31T10:39:56.610Z,0.60
2019-01-31T10:40:56.568Z,0.70
2019-01-31T10:41:56.468Z,0.70
2019-01-31T10:42:56.570Z,0.70
2019-01-31T10:43:56.477Z,0.70
2019-01-31T10:44:56.480Z,0.80
2019-01-31T10:45:56.532Z,0.80
2019-01-31T10:46:56.534Z,0.70
2019-01-31T10:47:56.486Z,0.70
2019-01-31T10:48:56.492Z,0.80
2019-01-31T10:49:56.545Z,0.70
2019-01-31T10:50:58.496Z,0.80
2019-01-31T10:51:56.504Z,0.70
2019-01-31T10:52:56.507Z,0.70
2019-01-31T10:53:56.511Z,1.00
2019-01-31T10:54:56.512Z,0.80
2019-01-31T10:55:56.515Z,0.80
2019-01-31T10:56:56.520Z,0.90
2019-01-31T10:57:56.522Z,0.80
2019-01-31T10:58:56.526Z,0.80
2019-01-31T10:59:56.529Z,1.00
2019-01-31T11:00:56.533Z,0.90
2019-01-31T11:01:56.536Z,0.80
2019-01-31T11:02:56.538Z,1.00
2019-01-31T11:03:56.542Z,0.90
2019-01-31T11:04:56.546Z,1.00
2019-01-31T11:05:56.550Z,0.80
2019-01-31T11:06:56.561Z,0.90
2019-01-31T11:07:59.459Z,1.00
2019-01-31T11:08:56.562Z,0.90
2019-01-31T11:09:56.612Z,1.10
2019-01-31T11:10:56.567Z,0.90
2019-01-31T11:11:56.571Z,0.90
2019-01-31T11:13:00.636Z,0.80
2019-01-31T11:13:56.579Z,0.90
2019-01-31T11:14:56.580Z,0.80
2019-01-31T11:15:56.586Z,0.80
2019-01-31T11:16:56.589Z,0.80
2019-01-31T11:17:56.642Z,0.90
2019-01-31T11:18:56.594Z,0.70
2019-01-31T11:19:56.599Z,0.90
2019-01-31T11:20:56.602Z,0.80
2019-01-31T11:21:56.604Z,0.90
2019-01-31T11:22:56.608Z,0.80
2019-01-31T11:23:56.611Z,0.80
2019-01-31T11:24:56.613Z,0.90
2019-01-31T11:25:56.619Z,0.90
2019-01-31T11:26:57.105Z,0.80
2019-01-31T11:27:56.624Z,0.70
2019-01-31T11:28:56.679Z,0.70
2019-01-31T11:29:56.683Z,0.70
2019-01-31T11:30:56.636Z,0.80
2019-01-31T11:31:56.751Z,0.60
2019-01-31T11:32:56.641Z,0.80
2019-01-31T11:33:56.647Z,0.70
2019-01-31T11:34:56.651Z,0.60
2019-01-31T11:35:56.654Z,0.70
2019-01-31T11:36:56.658Z,0.70
2019-01-31T11:37:56.660Z,0.90
2019-01-31T11:38:56.664Z,0.70
2019-01-31T11:39:56.764Z,0.80
2019-01-31T11:40:56.671Z,0.80
2019-01-31T11:41:56.674Z,0.60
2019-01-31T11:42:56.676Z,0.60
2019-01-31T11:43:56.694Z,0.50
2019-01-31T11:44:56.786Z,0.60
2019-01-31T11:45:56.692Z,0.60
2019-01-31T11:46:56.692Z,0.80
2019-01-31T11:47:56.693Z,0.60
2019-01-31T11:48:56.698Z,0.60
2019-01-31T11:49:56.704Z,0.60
2019-01-31T11:50:56.705Z,0.60
2019-01-31T11:51:56.716Z,0.60
2019-01-31T11:52:56.712Z,0.50
2019-01-31T11:53:56.805Z,0.50
2019-01-31T11:54:56.722Z,0.60
2019-01-31T11:55:56.722Z,0.60
2019-01-31T11:57:05.231Z,0.50
2019-01-31T11:57:56.733Z,0.40
2019-01-31T11:58:56.733Z,0.60
2019-01-31T11:59:56.740Z,0.60
2019-01-31T12:00:56.740Z,0.60
2019-01-31T12:01:56.744Z,0.50
2019-01-31T12:02:56.745Z,0.60
2019-01-31T12:03:56.751Z,0.60
2019-01-31T12:04:56.755Z,0.60
2019-01-31T12:05:56.758Z,0.50
2019-01-31T12:06:56.761Z,0.50
2019-01-31T12:07:56.764Z,0.60
2019-01-31T12:08:56.768Z,0.60
2019-01-31T12:09:56.772Z,0.60
2019-01-31T12:10:56.781Z,0.50
2019-01-31T12:11:56.782Z,0.50
2019-01-31T12:12:56.781Z,0.60
2019-01-31T12:13:56.787Z,0.50
2019-01-31T12:14:56.788Z,0.60
2019-01-31T12:15:56.793Z,0.60
2019-01-31T12:16:56.797Z,0.50
2019-01-31T12:17:56.801Z,0.60
2019-01-31T12:18:56.803Z,0.80
2019-01-31T12:19:56.957Z,0.60
2019-01-31T12:20:56.810Z,0.50
2019-01-31T12:21:56.812Z,0.60
2019-01-31T12:22:56.819Z,0.60
2019-01-31T12:23:56.822Z,0.80
2019-01-31T12:24:56.824Z,0.50
2019-01-31T12:25:56.827Z,0.80
2019-01-31T12:26:56.831Z,0.60
2019-01-31T12:27:56.835Z,0.60
2019-01-31T12:28:56.837Z,0.90
2019-01-31T12:29:56.843Z,0.50
2019-01-31T12:30:56.845Z,0.60
2019-01-31T12:31:56.848Z,0.70
2019-01-31T12:32:56.905Z,0.50
2019-01-31T12:33:56.858Z,0.70
2019-01-31T12:34:56.858Z,0.50
2019-01-31T12:35:56.862Z,0.60
2019-01-31T12:36:56.866Z,0.50
2019-01-31T12:37:56.870Z,0.70
2019-01-31T12:38:56.878Z,0.50
2019-01-31T12:39:57.077Z,0.60
2019-01-31T12:40:56.929Z,0.50
2019-01-31T12:41:56.884Z,0.60
2019-01-31T12:42:56.887Z,0.60
2019-01-31T12:43:56.898Z,0.50
2019-01-31T12:44:56.896Z,0.40
2019-01-31T12:45:56.901Z,0.60
2019-01-31T12:46:56.951Z,0.70
2019-01-31T12:47:56.906Z,0.70
2019-01-31T12:48:56.908Z,0.60
2019-01-31T12:49:57.062Z,0.50
2019-01-31T12:50:56.916Z,0.40
2019-01-31T12:51:56.923Z,0.40
2019-01-31T12:52:56.973Z,0.50
2019-01-31T12:53:56.978Z,0.50
2019-01-31T12:54:56.930Z,0.50
2019-01-31T12:55:56.935Z,0.50
2019-01-31T12:56:56.937Z,0.40
2019-01-31T12:57:56.991Z,0.50
2019-01-31T12:58:56.944Z,0.40
2019-01-31T12:59:56.948Z,0.40
2019-01-31T13:00:56.956Z,0.50
2019-01-31T13:01:56.958Z,0.30
2019-01-31T13:02:56.957Z,0.40
2019-01-31T13:03:56.962Z,0.40
2019-01-31T13:04:56.967Z,0.40
2019-01-31T13:05:56.975Z,0.50
2019-01-31T13:06:56.997Z,0.40
2019-01-31T13:07:57.077Z,0.40
2019-01-31T13:08:56.982Z,0.50
2019-01-31T13:09:56.985Z,0.40
2019-01-31T13:10:56.987Z,0.40
2019-01-31T13:11:56.991Z,0.50
2019-01-31T13:12:56.996Z,0.30
2019-01-31T13:13:57.000Z,0.30
2019-01-31T13:14:57.004Z,0.30
2019-01-31T13:15:57.006Z,0.40
2019-01-31T13:16:57.011Z,0.40
2019-01-31T13:17:57.013Z,0.50
2019-01-31T13:18:57.016Z,0.40